Time;durP1;ratioP1;P1;durP2;ratioP2;P2;SDS_P1;SDS_P2;PMS_P1;PMS_P2;Temp;Humidity;BMP_temperature;BMP_pressure;BME280_temperature;BME280_humidity;BME280_pressure;Samples;Min_cycle;Max_cycle;Signal;HPM_P1;HPM_P2
2022/11/15 00:01:20;;;;;;;32.42;16.52;;;;;;;6.79;100.00;100757.88;5109080;28;20089;-52
2022/11/15 00:03:52;;;;;;;32.60;17.27;;;;;;;6.84;100.00;100752.41;5109384;28;20063;-51
2022/11/15 00:06:20;;;;;;;31.77;16.95;;;;;;;6.86;100.00;100750.56;5111945;27;20313;-50
2022/11/15 00:08:48;;;;;;;33.00;17.33;;;;;;;6.89;100.00;100758.25;5108875;28;20050;-51
2022/11/15 00:11:16;;;;;;;30.25;16.92;;;;;;;6.87;100.00;100747.00;5110077;28;20050;-50
2022/11/15 00:13:45;;;;;;;33.58;16.60;;;;;;;6.91;100.00;100749.41;5110076;28;20081;-51
2022/11/15 00:16:13;;;;;;;34.22;18.02;;;;;;;6.91;100.00;100749.41;5108939;28;20062;-52
2022/11/15 00:18:42;;;;;;;30.05;17.70;;;;;;;6.91;100.00;100746.78;5111842;28;20040;-53
2022/11/15 00:21:18;;;;;;;33.30;17.27;;;;;;;6.92;100.00;100742.41;5111327;28;20473;-52
2022/11/15 00:23:46;;;;;;;30.88;16.58;;;;;;;6.98;100.00;100739.47;5108684;28;20077;-51
2022/11/15 00:26:18;;;;;;;30.40;17.58;;;;;;;6.99;100.00;100737.69;5111310;28;20097;-53
2022/11/15 00:28:47;;;;;;;35.40;18.05;;;;;;;6.96;100.00;100732.63;5112487;28;20039;-52
2022/11/15 00:31:15;;;;;;;33.83;18.15;;;;;;;6.97;100.00;100731.69;5108913;28;20106;-51
2022/11/15 00:33:45;;;;;;;34.17;17.88;;;;;;;7.01;100.00;100721.00;5108286;28;20047;-53
2022/11/15 00:36:13;;;;;;;32.83;18.92;;;;;;;7.01;100.00;100725.38;5109898;28;20039;-51
2022/11/15 00:38:41;;;;;;;35.40;17.45;;;;;;;7.02;100.00;100720.09;5109720;28;20126;-52
2022/11/15 00:41:09;;;;;;;31.85;17.40;;;;;;;7.04;100.00;100726.06;5109409;28;20047;-52
2022/11/15 00:43:39;;;;;;;33.95;16.77;;;;;;;7.04;100.00;100720.84;5111982;28;20054;-52
2022/11/15 00:46:09;;;;;;;30.33;17.20;;;;;;;7.06;100.00;100724.22;5109112;28;20058;-52
2022/11/15 00:48:38;;;;;;;28.40;16.80;;;;;;;7.06;100.00;100721.63;5109421;28;20047;-51
2022/11/15 00:51:06;;;;;;;29.48;17.05;;;;;;;7.18;100.00;100716.66;5112380;28;20052;-52
2022/11/15 00:53:34;;;;;;;33.72;17.75;;;;;;;7.10;100.00;100719.66;5108929;28;20096;-52
2022/11/15 00:56:02;;;;;;;33.78;16.65;;;;;;;7.14;100.00;100717.75;5112812;28;20042;-52
2022/11/15 00:58:30;;;;;;;31.45;16.63;;;;;;;7.16;100.00;100715.88;5112132;27;20391;-53
2022/11/15 01:01:07;;;;;;;26.38;15.90;;;;;;;7.16;100.00;100708.91;5112626;28;20151;-53
2022/11/15 01:03:37;;;;;;;28.60;16.63;;;;;;;7.14;100.00;100710.72;5113573;28;20047;-53
2022/11/15 01:06:06;;;;;;;28.33;16.92;;;;;;;7.17;100.00;100704.50;5115952;28;20409;-53
2022/11/15 01:08:34;;;;;;;27.48;16.40;;;;;;;7.20;100.00;100699.09;5115918;28;20035;-48
2022/11/15 01:11:03;;;;;;;27.95;16.77;;;;;;;7.21;100.00;100693.81;5115709;28;20051;-50
2022/11/15 01:13:33;;;;;;;28.10;16.90;;;;;;;7.22;100.00;100689.41;5114741;28;20385;-51
2022/11/15 01:16:07;;;;;;;27.08;16.92;;;;;;;7.21;100.00;100693.81;5112154;27;20043;-48
2022/11/15 01:18:37;;;;;;;25.42;16.17;;;;;;;7.30;100.00;100691.63;5113400;28;20039;-49
2022/11/15 01:21:10;;;;;;;29.23;16.77;;;;;;;7.28;100.00;100689.09;5112221;28;20638;-50
2022/11/15 01:23:38;;;;;;;30.38;17.08;;;;;;;7.28;100.00;100691.72;5111448;28;20051;-49
2022/11/15 01:26:10;;;;;;;26.70;17.40;;;;;;;7.26;100.00;100686.53;5112606;28;20054;-48
2022/11/15 01:28:41;;;;;;;27.35;17.13;;;;;;;7.26;100.00;100689.16;5113306;28;20048;-48
2022/11/15 01:31:13;;;;;;;30.48;16.30;;;;;;;7.32;100.00;100677.53;5114454;28;20044;-51
2022/11/15 01:33:42;;;;;;;31.45;16.60;;;;;;;7.34;100.00;100669.59;5114640;28;20475;-50
2022/11/15 01:36:13;;;;;;;27.23;16.67;;;;;;;7.38;100.00;100671.13;5111387;28;20036;-50
2022/11/15 01:38:41;;;;;;;27.25;16.33;;;;;;;7.43;100.00;100664.72;5113178;28;20062;-53
2022/11/15 01:41:17;;;;;;;24.67;16.70;;;;;;;7.44;100.00;100660.31;5113851;28;20047;-53
2022/11/15 01:43:45;;;;;;;27.13;16.65;;;;;;;7.48;100.00;100651.34;5111032;28;20048;-53
2022/11/15 01:46:26;;;;;;;30.23;16.88;;;;;;;7.53;100.00;100659.81;5111768;27;20048;-55
2022/11/15 01:48:58;;;;;;;28.83;16.33;;;;;;;7.53;100.00;100653.75;5111340;28;20059;-53
2022/11/15 01:51:31;;;;;;;27.75;17.63;;;;;;;7.55;100.00;100663.19;5111044;28;20044;-53
2022/11/15 01:54:03;;;;;;;32.22;16.98;;;;;;;7.55;100.00;100654.47;5113754;28;20078;-50
2022/11/15 01:56:37;;;;;;;30.17;17.58;;;;;;;7.57;100.00;100645.63;5114200;27;20048;-50
2022/11/15 01:59:09;;;;;;;29.38;18.25;;;;;;;7.58;100.00;100651.69;5114592;28;20116;-50
2022/11/15 02:01:38;;;;;;;28.30;17.40;;;;;;;7.62;100.00;100661.06;5114376;27;20105;-48
2022/11/15 02:04:14;;;;;;;25.48;16.85;;;;;;;7.69;100.00;100653.72;5114848;28;20379;-50
2022/11/15 02:06:43;;;;;;;30.45;18.40;;;;;;;7.67;100.00;100652.97;5114374;28;20097;-51
2022/11/15 02:09:13;;;;;;;26.67;16.60;;;;;;;7.77;100.00;100646.25;5114753;28;20417;-50
2022/11/15 02:11:42;;;;;;;26.55;17.85;;;;;;;7.73;100.00;100649.97;5114765;28;20058;-49
2022/11/15 02:14:13;;;;;;;28.95;16.85;;;;;;;7.76;100.00;100649.84;5114999;28;20046;-49
2022/11/15 02:16:54;;;;;;;30.48;18.27;;;;;;;7.80;100.00;100646.13;5114456;28;20105;-50
2022/11/15 02:19:38;;;;;;;32.05;18.48;;;;;;;7.89;100.00;100650.81;5113378;28;20470;-48
2022/11/15 02:22:15;;;;;;;24.63;16.25;;;;;;;7.87;100.00;100644.81;5110521;28;20096;-49
2022/11/15 02:25:02;;;;;;;28.40;16.35;;;;;;;7.93;100.00;100638.38;5111887;28;20126;-51
2022/11/15 02:28:06;;;;;;;28.08;16.52;;;;;;;7.92;100.00;100639.31;5114249;28;20502;-51
2022/11/15 02:30:43;;;;;;;25.00;16.88;;;;;;;7.95;100.00;100639.16;5079280;28;20071;-48
2022/11/15 02:33:23;;;;;;;25.35;17.27;;;;;;;7.95;100.00;100640.00;5109683;28;20043;-49
2022/11/15 02:35:59;;;;;;;24.90;16.92;;;;;;;7.95;100.00;100637.38;5109835;28;20087;-50
2022/11/15 02:38:35;;;;;;;29.33;17.58;;;;;;;8.00;100.00;100637.09;5113875;28;20058;-47
2022/11/15 02:41:07;;;;;;;24.60;16.50;;;;;;;8.01;100.00;100632.72;5113924;28;20411;-51
2022/11/15 02:43:58;;;;;;;27.25;17.05;;;;;;;8.01;100.00;100623.06;5113799;28;20130;-47
2022/11/15 02:49:23;;;;;;;27.63;16.38;;;;;;;8.10;100.00;100611.25;5112451;28;20039;-53
2022/11/15 02:51:53;;;;;;;26.35;17.15;;;;;;;8.11;100.00;100615.53;5113800;27;20517;-46
2022/11/15 02:54:24;;;;;;;27.50;16.98;;;;;;;8.10;100.00;100611.25;5113596;28;20072;-49
2022/11/15 02:56:55;;;;;;;26.03;17.47;;;;;;;8.15;100.00;100613.56;5113319;28;20054;-51
2022/11/15 03:00:07;;;;;;;27.88;16.95;;;;;;;8.16;100.00;100605.63;5108583;28;20116;-49
2022/11/15 03:02:50;;;;;;;26.63;17.38;;;;;;;8.18;100.00;100601.16;5075127;28;20056;-48
2022/11/15 03:05:20;;;;;;;;;;;;;;;8.26;100.00;100604.16;5112064;28;20059;-48
2022/11/15 03:07:56;;;;;;;27.98;16.80;;;;;;;8.34;100.00;100592.38;5113136;28;19927;-49
2022/11/15 03:10:37;;;;;;;26.98;17.17;;;;;;;8.31;100.00;100592.56;5113562;28;20047;-49
2022/11/15 03:13:22;;;;;;;25.30;17.38;;;;;;;8.35;100.00;100591.44;5113170;28;20092;-51
2022/11/15 03:15:58;;;;;;;24.30;16.73;;;;;;;8.39;100.00;100587.72;5113275;28;20120;-51
2022/11/15 03:18:33;;;;;;;27.70;16.60;;;;;;;8.37;100.00;100592.19;5111360;28;20436;-52
2022/11/15 03:21:05;;;;;;;28.40;17.00;;;;;;;8.42;100.00;100587.50;5111304;28;20525;-49
2022/11/15 03:23:35;;;;;;;28.50;18.17;;;;;;;8.42;100.00;100585.72;5109432;28;20051;-49
2022/11/15 03:26:06;;;;;;;25.27;17.38;;;;;;;8.51;100.00;100587.00;5113008;28;20126;-47
2022/11/15 03:28:43;;;;;;;27.38;17.17;;;;;;;8.51;100.00;100584.38;5113241;28;20070;-52
2022/11/15 03:34:07;;;;;;;25.42;17.25;;;;;;;8.59;100.00;100576.88;5113044;28;20105;-47
2022/11/15 03:36:36;;;;;;;29.38;18.95;;;;;;;8.60;100.00;100577.72;5113011;28;20043;-51
2022/11/15 03:39:08;;;;;;;25.20;18.60;;;;;;;8.64;100.00;100584.47;5112991;28;20050;-52
2022/11/15 03:41:41;;;;;;;24.00;16.60;;;;;;;8.67;100.00;100586.06;5112976;28;20066;-49
2022/11/15 03:44:16;;;;;;;26.88;17.90;;;;;;;8.73;100.00;100589.16;5112944;28;20054;-50
2022/11/15 03:46:53;;;;;;;28.00;18.10;;;;;;;8.74;100.00;100589.97;5109863;28;20083;-51
2022/11/15 03:49:28;;;;;;;26.52;17.90;;;;;;;8.76;100.00;100588.94;5109796;28;20075;-49
2022/11/15 03:51:58;;;;;;;28.48;17.50;;;;;;;8.76;100.00;100583.69;5113048;28;20052;-49
2022/11/15 03:54:26;;;;;;;28.02;17.98;;;;;;;8.85;100.00;100586.69;5112665;28;20109;-49
2022/11/15 03:56:54;;;;;;;29.48;18.73;;;;;;;8.87;100.00;100590.91;5112688;28;20475;-52
2022/11/15 03:59:22;;;;;;;27.45;18.40;;;;;;;8.90;100.00;100595.13;5109827;28;20702;-52
2022/11/15 04:01:51;;;;;;;29.17;18.42;;;;;;;8.90;100.00;100592.50;5109052;28;20051;-47
2022/11/15 04:04:19;;;;;;;28.30;18.25;;;;;;;8.94;100.00;100596.63;5112596;28;20048;-52
2022/11/15 04:06:48;;;;;;;30.88;18.98;;;;;;;9.01;100.00;100594.47;5112757;28;20047;-52
2022/11/15 04:09:16;;;;;;;33.75;19.48;;;;;;;8.98;100.00;100597.28;5112391;28;20520;-51
2022/11/15 04:11:44;;;;;;;26.42;18.30;;;;;;;9.07;100.00;100596.72;5112218;28;20105;-47
2022/11/15 04:14:12;;;;;;;24.98;17.52;;;;;;;9.06;100.00;100601.09;5112241;28;20116;-50
2022/11/15 04:16:41;;;;;;;27.40;19.17;;;;;;;9.08;100.00;100598.38;5111791;28;20470;-51
2022/11/15 04:24:47;;;;;;;26.08;17.55;;;;;;;9.12;100.00;100598.09;5112158;28;20043;-54
2022/11/15 04:27:15;;;;;;;28.60;19.05;;;;;;;9.17;100.00;100595.19;5110473;28;20048;-54
2022/11/15 04:29:43;;;;;;;27.63;18.40;;;;;;;9.17;100.00;100589.94;5112295;28;20982;-53
2022/11/15 04:32:11;;;;;;;28.40;18.27;;;;;;;9.18;100.00;100581.13;5114391;28;20617;-54
2022/11/15 04:34:39;;;;;;;30.27;19.73;;;;;;;9.18;100.00;100581.13;5113103;28;20465;-55
2022/11/15 04:37:15;;;;;;;27.52;18.23;;;;;;;9.23;100.00;100579.06;5112355;28;20502;-53
2022/11/15 04:39:44;;;;;;;24.92;17.30;;;;;;;9.23;100.00;100581.69;5112808;28;20052;-53
2022/11/15 04:42:12;;;;;;;26.17;18.40;;;;;;;9.25;100.00;100578.97;5112961;27;20100;-55
2022/11/15 04:44:40;;;;;;;29.42;18.05;;;;;;;9.26;100.00;100585.91;5115025;28;20043;-55
2022/11/15 04:47:08;;;;;;;26.58;17.90;;;;;;;9.30;100.00;100582.97;5116432;28;20039;-54
2022/11/15 04:49:36;;;;;;;26.77;17.48;;;;;;;9.27;100.00;100583.19;5116204;28;20429;-53
2022/11/15 04:52:05;;;;;;;27.02;18.25;;;;;;;9.30;100.00;100582.13;5115861;28;20135;-53
2022/11/15 04:54:34;;;;;;;27.30;18.98;;;;;;;9.29;100.00;100588.31;5115731;28;20052;-53
2022/11/15 04:57:02;;;;;;;25.40;17.65;;;;;;;9.27;100.00;100583.19;5116096;27;20048;-54
2022/11/15 04:59:30;;;;;;;25.77;17.85;;;;;;;9.27;100.00;100588.41;5114103;27;20605;-57
2022/11/15 05:01:58;;;;;;;27.42;18.27;;;;;;;9.28;100.00;100587.50;5112247;28;20112;-54
2022/11/15 05:04:26;;;;;;;26.45;18.63;;;;;;;9.31;100.00;100578.56;5115296;28;20051;-54
2022/11/15 05:06:54;;;;;;;25.48;18.10;;;;;;;9.28;100.00;100581.38;5112255;28;20044;-54
2022/11/15 05:09:22;;;;;;;27.35;17.77;;;;;;;9.33;100.00;100583.72;5114105;28;20082;-54
2022/11/15 05:11:52;;;;;;;28.17;18.38;;;;;;;9.33;100.00;100586.34;5112466;28;20070;-55
2022/11/15 05:14:20;;;;;;;24.27;17.40;;;;;;;9.31;100.00;100583.81;5111275;28;20130;-54
2022/11/15 05:16:48;;;;;;;29.55;18.15;;;;;;;9.33;100.00;100588.97;5115833;28;20579;-54
2022/11/15 05:19:16;;;;;;;28.13;18.23;;;;;;;9.30;100.00;100580.34;5115711;28;20406;-54
2022/11/15 05:21:44;;;;;;;33.35;18.73;;;;;;;9.41;100.00;100584.91;5114302;28;20051;-54
2022/11/15 05:24:12;;;;;;;29.15;18.58;;;;;;;9.41;100.00;100578.81;5111842;28;20105;-54
2022/11/15 05:26:40;;;;;;;30.27;18.83;;;;;;;9.42;100.00;100576.09;5112001;28;20063;-56
2022/11/15 05:29:11;;;;;;;28.98;18.35;;;;;;;9.44;100.00;100568.13;5115273;28;20058;-55
2022/11/15 05:31:42;;;;;;;27.45;17.92;;;;;;;9.44;100.00;100568.13;5114014;28;20055;-55
2022/11/15 05:34:10;;;;;;;28.23;17.95;;;;;;;9.50;100.00;100575.59;5111824;28;20109;-55
2022/11/15 05:36:41;;;;;;;28.15;17.58;;;;;;;9.44;100.00;100570.75;5111511;28;20046;-54
2022/11/15 05:39:09;;;;;;;25.67;16.90;;;;;;;9.47;100.00;100574.03;5112142;28;20092;-54
2022/11/15 05:41:42;;;;;;;30.13;18.27;;;;;;;9.50;100.00;100577.38;5111256;27;20493;-53
2022/11/15 05:44:15;;;;;;;25.65;17.25;;;;;;;9.48;100.00;100580.09;5111646;28;20495;-53
2022/11/15 05:46:43;;;;;;;;;;;;;;;9.48;100.00;100582.72;5113744;28;20095;-55
2022/11/15 05:49:14;;;;;;;28.63;16.98;;;;;;;9.52;100.00;100589.47;5111835;27;20007;-48
2022/11/15 05:51:45;;;;;;;29.60;17.33;;;;;;;9.54;100.00;100587.56;5113666;27;20043;-52
2022/11/15 05:54:15;;;;;;;31.75;19.05;;;;;;;9.54;100.00;100587.56;5115077;28;20539;-52
2022/11/15 05:56:44;;;;;;;28.42;17.65;;;;;;;9.57;100.00;100586.53;5113631;28;20056;-50
2022/11/15 05:59:14;;;;;;;26.67;17.70;;;;;;;9.53;100.00;100587.66;5115043;28;20078;-50
2022/11/15 06:01:42;;;;;;;26.80;16.83;;;;;;;9.57;100.00;100584.75;5112656;28;20055;-48
2022/11/15 06:04:11;;;;;;;25.50;17.73;;;;;;;9.63;100.00;100584.34;5111226;28;20158;-48
2022/11/15 06:06:39;;;;;;;25.10;17.35;;;;;;;9.60;100.00;100583.72;5114475;28;20051;-51
2022/11/15 06:09:07;;;;;;;28.83;18.10;;;;;;;9.61;100.00;100596.75;5113656;28;20051;-48
2022/11/15 06:11:35;;;;;;;29.38;17.67;;;;;;;9.62;100.00;100602.84;5114862;28;20126;-51
2022/11/15 06:14:03;;;;;;;26.80;17.80;;;;;;;9.68;100.00;100596.34;5115045;28;20051;-52
2022/11/15 06:16:33;;;;;;;27.40;17.60;;;;;;;9.67;100.00;100592.03;5114170;28;20047;-49
2022/11/15 06:19:01;;;;;;;27.00;17.23;;;;;;;9.67;100.00;100592.88;5114158;28;20051;-51
2022/11/15 06:21:29;;;;;;;27.75;17.98;;;;;;;9.74;100.00;100585.44;5114592;28;20096;-51
2022/11/15 06:23:57;;;;;;;29.30;19.75;;;;;;;9.72;100.00;100587.31;5114550;28;20126;-50
2022/11/15 06:26:25;;;;;;;30.95;18.52;;;;;;;9.71;100.00;100580.41;5113108;28;20158;-52
2022/11/15 06:28:53;;;;;;;32.55;18.25;;;;;;;9.71;100.00;100581.22;5113046;28;20138;-50
2022/11/15 06:31:21;;;;;;;28.90;19.30;;;;;;;9.70;100.00;100584.78;5114656;28;20051;-47
2022/11/15 06:33:51;;;;;;;25.23;17.80;;;;;;;9.76;100.00;100588.78;5113054;28;20075;-47
2022/11/15 06:36:19;;;;;;;26.85;18.20;;;;;;;9.79;100.00;100591.25;5114243;28;20047;-49
2022/11/15 06:38:47;;;;;;;29.00;19.23;;;;;;;9.78;100.00;100593.00;5113969;28;20032;-50
2022/11/15 06:41:16;;;;;;;29.05;18.05;;;;;;;9.82;100.00;100598.91;5114263;28;20043;-52
2022/11/15 06:43:44;;;;;;;29.20;18.40;;;;;;;9.88;100.00;100608.16;5113867;27;20492;-52
2022/11/15 06:46:13;;;;;;;28.10;18.20;;;;;;;9.80;100.00;100611.28;5113788;28;20522;-52
2022/11/15 06:48:41;;;;;;;28.58;17.95;;;;;;;9.79;100.00;100620.13;5112644;28;20083;-47
2022/11/15 06:51:10;;;;;;;29.50;17.25;;;;;;;9.81;100.00;100611.19;5113674;28;20100;-49
2022/11/15 06:53:38;;;;;;;28.27;16.80;;;;;;;9.80;100.00;100609.53;5113481;28;20541;-48
2022/11/15 06:56:08;;;;;;;32.15;18.55;;;;;;;9.80;100.00;100606.03;5114030;28;20067;-50
2022/11/15 06:58:37;;;;;;;27.60;17.60;;;;;;;9.84;100.00;100604.06;5113722;28;20055;-50
2022/11/15 07:01:07;;;;;;;27.42;17.58;;;;;;;9.81;100.00;100611.19;5113380;28;20042;-53
2022/11/15 07:03:37;;;;;;;22.15;16.50;;;;;;;9.84;100.00;100611.94;5109463;28;20043;-52
2022/11/15 07:06:05;;;;;;;25.88;17.88;;;;;;;9.81;100.00;100607.72;5111719;28;20073;-54
2022/11/15 07:08:36;;;;;;;24.67;17.20;;;;;;;9.85;100.00;100614.47;5111150;28;20401;-54
2022/11/15 07:11:07;;;;;;;23.40;16.05;;;;;;;9.88;100.00;100613.41;5110345;28;20040;-54
2022/11/15 07:13:37;;;;;;;25.45;16.33;;;;;;;9.91;100.00;100614.06;5109925;28;20046;-52
2022/11/15 07:16:07;;;;;;;21.20;16.17;;;;;;;9.88;100.00;100621.31;5112114;28;20048;-51
2022/11/15 07:18:36;;;;;;;21.15;14.85;;;;;;;9.85;100.00;100611.84;5109295;28;20051;-52
2022/11/15 07:21:06;;;;;;;21.45;15.80;;;;;;;9.86;100.00;100625.78;5112664;28;20549;-53
2022/11/15 07:23:37;;;;;;;23.75;17.75;;;;;;;9.88;100.00;100622.13;5113400;28;20040;-52
2022/11/15 07:26:06;;;;;;;22.48;17.13;;;;;;;9.85;100.00;100626.75;5113486;28;20051;-48
2022/11/15 07:28:35;;;;;;;24.02;16.10;;;;;;;9.90;100.00;100632.56;5112981;28;20031;-52
2022/11/15 07:31:04;;;;;;;25.48;17.90;;;;;;;9.86;100.00;100623.16;5113086;28;20366;-51
2022/11/15 07:33:33;;;;;;;26.02;17.42;;;;;;;9.90;100.00;100628.13;5113194;28;20054;-54
2022/11/15 07:36:02;;;;;;;23.95;17.00;;;;;;;9.93;100.00;100627.94;5112893;28;20059;-53
2022/11/15 07:38:31;;;;;;;26.85;17.45;;;;;;;9.92;100.00;100639.38;5112962;28;20115;-52
2022/11/15 07:41:02;;;;;;;24.45;16.23;;;;;;;9.95;100.00;100641.81;5112938;28;20465;-49
2022/11/15 07:43:32;;;;;;;23.48;15.98;;;;;;;9.97;100.00;100639.91;5112706;28;20051;-50
2022/11/15 07:46:08;;;;;;;23.88;16.67;;;;;;;9.97;100.00;100642.53;5112029;28;20414;-54
2022/11/15 07:48:39;;;;;;;21.60;16.08;;;;;;;10.01;100.00;100640.56;5112355;28;20410;-51
2022/11/15 07:51:13;;;;;;;24.67;17.17;;;;;;;10.04;100.00;100640.38;5111614;28;20059;-54
2022/11/15 07:53:42;;;;;;;26.00;17.77;;;;;;;10.06;100.00;100645.50;5108419;28;20059;-53
2022/11/15 07:56:11;;;;;;;22.75;15.90;;;;;;;10.04;100.00;100639.53;5108795;28;20056;-53
2022/11/15 07:58:39;;;;;;;21.35;16.20;;;;;;;10.07;100.00;100639.31;5110639;28;20044;-54
2022/11/15 08:01:09;;;;;;;23.27;15.88;;;;;;;10.07;100.00;100632.25;5112857;28;20055;-55
2022/11/15 08:03:38;;;;;;;22.33;15.98;;;;;;;10.09;100.00;100642.66;5111550;28;20040;-55
2022/11/15 08:06:06;;;;;;;23.23;16.10;;;;;;;10.10;100.00;100636.47;5107697;28;20104;-54
2022/11/15 08:08:34;;;;;;;23.63;14.77;;;;;;;10.10;100.00;100639.97;5108371;28;20043;-53
2022/11/15 08:11:03;;;;;;;19.73;15.05;;;;;;;10.11;100.00;100636.38;5108825;28;20047;-54
2022/11/15 08:13:32;;;;;;;19.90;14.43;;;;;;;10.14;100.00;100641.44;5107788;28;20131;-53
2022/11/15 08:16:05;;;;;;;21.42;15.25;;;;;;;10.15;100.00;100642.28;5108845;28;20047;-54
2022/11/15 08:18:33;;;;;;;21.90;15.27;;;;;;;10.24;100.00;100640.81;5108062;28;20051;-53
2022/11/15 08:21:02;;;;;;;20.83;14.48;;;;;;;10.20;100.00;100629.69;5108942;28;20078;-54
2022/11/15 08:23:31;;;;;;;20.05;15.40;;;;;;;10.17;100.00;100629.03;5111234;28;20045;-53
2022/11/15 08:26:02;;;;;;;24.15;15.55;;;;;;;10.21;100.00;100630.50;5109543;28;20052;-53
2022/11/15 08:28:33;;;;;;;22.20;15.02;;;;;;;10.22;100.00;100632.19;5108886;28;21026;-54
2022/11/15 08:31:01;;;;;;;21.73;16.35;;;;;;;10.23;100.00;100618.94;5111481;28;20071;-53
2022/11/15 08:33:29;;;;;;;21.58;14.98;;;;;;;10.26;100.00;100624.00;5108471;28;20053;-53
2022/11/15 08:35:59;;;;;;;24.88;15.27;;;;;;;10.28;100.00;100613.38;5108432;28;20056;-52
2022/11/15 08:38:29;;;;;;;23.95;15.25;;;;;;;10.37;100.00;100614.59;5109241;28;20044;-53
2022/11/15 08:41:05;;;;;;;23.70;15.65;;;;;;;10.40;100.00;100625.75;5109409;28;20048;-53
2022/11/15 08:43:36;;;;;;;22.85;16.25;;;;;;;10.48;100.00;100622.56;5109038;28;20363;-54
2022/11/15 08:46:04;;;;;;;21.35;14.98;;;;;;;10.59;100.00;100627.97;5112121;28;20188;-53
2022/11/15 08:48:33;;;;;;;20.60;15.82;;;;;;;10.62;100.00;100627.75;5109759;28;20055;-54
2022/11/15 08:51:01;;;;;;;21.45;15.95;;;;;;;10.64;100.00;100625.84;5108286;28;20043;-54
2022/11/15 08:53:29;;;;;;;23.02;15.07;;;;;;;10.72;100.00;100624.50;5111371;28;20387;-53
2022/11/15 08:55:57;;;;;;;19.15;14.10;;;;;;;10.74;100.00;100618.16;5110768;28;20084;-54
2022/11/15 08:58:25;;;;;;;20.00;14.30;;;;;;;10.76;100.00;100623.31;5108034;28;20459;-54
2022/11/15 09:00:55;;;;;;;21.63;13.63;;;;;;;10.85;100.00;100621.84;5108493;28;20040;-55
2022/11/15 09:03:23;;;;;;;26.65;13.80;;;;;;;10.80;100.00;100633.50;5107957;28;20066;-55
2022/11/15 09:05:55;;;;;;;18.65;13.18;;;;;;;10.82;100.00;100622.88;5110908;28;20434;-55
2022/11/15 09:08:23;;;;;;;19.40;12.48;;;;;;;10.90;100.00;100625.00;5108763;28;20090;-55
2022/11/15 09:11:12;;;;;;;18.92;12.43;;;;;;;10.90;100.00;100620.56;5108738;28;20063;-55
2022/11/15 09:13:40;;;;;;;17.17;11.40;;;;;;;10.86;100.00;100611.19;5108094;28;20067;-55
2022/11/15 09:16:11;;;;;;;15.80;10.65;;;;;;;10.85;100.00;100612.13;5106696;28;20043;-56
2022/11/15 09:18:39;;;;;;;20.90;10.20;;;;;;;10.82;100.00;100615.84;5110521;28;20100;-55
2022/11/15 09:21:08;;;;;;;15.90;10.45;;;;;;;10.82;100.00;100609.72;5111802;28;20050;-56
2022/11/15 09:23:36;;;;;;;14.30;9.90;;;;;;;10.86;100.00;100608.56;5111351;28;20119;-55
2022/11/15 09:26:06;;;;;;;14.73;10.52;;;;;;;10.81;100.00;100615.94;5112192;28;20113;-55
2022/11/15 09:28:34;;;;;;;17.83;10.82;;;;;;;10.80;100.00;100601.94;5114223;28;20051;-56
2022/11/15 09:31:05;;;;;;;17.48;9.80;;;;;;;10.80;100.00;100606.38;5111352;28;20108;-55
2022/11/15 09:33:35;;;;;;;17.67;10.00;;;;;;;10.92;100.00;100595.00;5110444;28;20093;-56
2022/11/15 09:36:05;;;;;;;13.90;9.80;;;;;;;10.86;100.00;100594.59;5110218;28;20055;-55
2022/11/15 09:38:33;;;;;;;14.35;9.75;;;;;;;10.93;100.00;100595.81;5111612;28;20063;-55
2022/11/15 09:41:34;;;;;;;16.10;9.27;;;;;;;10.91;100.00;100585.41;5111860;28;20039;-54
2022/11/15 09:44:46;;;;;;;16.85;10.07;;;;;;;10.93;100.00;100591.38;5087173;28;20052;-55
2022/11/15 09:47:42;;;;;;;17.27;9.90;;;;;;;10.98;100.00;100584.03;5106095;28;20051;-52
2022/11/15 09:50:13;;;;;;;17.70;9.95;;;;;;;10.97;100.00;100579.69;5109207;28;20051;-52
2022/11/15 09:52:45;;;;;;;17.07;9.87;;;;;;;11.01;100.00;100579.50;5115223;28;20055;-51
2022/11/15 09:55:21;;;;;;;12.70;9.07;;;;;;;11.04;100.00;100589.81;5114872;28;20100;-52
2022/11/15 09:57:57;;;;;;;13.15;8.77;;;;;;;11.08;100.00;100586.84;5114499;27;20062;-53
2022/11/15 10:00:33;;;;;;;17.83;9.45;;;;;;;11.22;100.00;100585.00;5114946;28;20521;-52
2022/11/15 10:03:24;;;;;;;14.10;8.90;;;;;;;11.30;100.00;100573.00;5114595;28;20047;-52
2022/11/15 10:05:58;;;;;;;14.15;8.43;;;;;;;11.43;100.00;100572.09;5114595;28;20551;-56
2022/11/15 10:08:51;;;;;;;13.43;7.72;;;;;;;11.48;100.00;100562.06;5112946;28;20059;-56
2022/11/15 10:11:23;;;;;;;13.50;8.27;;;;;;;11.48;100.00;100559.44;5111866;28;20058;-57
2022/11/15 10:14:12;;;;;;;13.20;8.10;;;;;;;11.52;100.00;100563.53;5115094;28;20043;-56
2022/11/15 10:17:07;;;;;;;13.32;7.55;;;;;;;11.55;100.00;100565.94;5111106;28;20105;-57
2022/11/15 10:19:42;;;;;;;15.35;7.60;;;;;;;11.66;100.00;100563.34;5105884;28;20060;-57
2022/11/15 10:22:25;;;;;;;11.93;7.50;;;;;;;11.72;100.00;100558.56;5112298;28;20050;-53
2022/11/15 10:25:11;;;;;;;12.13;7.03;;;;;;;11.70;100.00;100556.06;5110791;28;20422;-53
2022/11/15 10:27:40;;;;;;;11.15;6.30;;;;;;;11.65;100.00;100560.81;5114319;27;20051;-53
2022/11/15 10:30:14;;;;;;;10.45;5.80;;;;;;;11.61;100.00;100554.91;5114549;27;20122;-54
2022/11/15 10:32:44;;;;;;;10.57;5.97;;;;;;;11.63;100.00;100547.75;5114422;28;20043;-54
2022/11/15 10:35:26;;;;;;;8.85;5.75;;;;;;;11.70;100.00;100558.69;5114267;27;20072;-52
2022/11/15 10:38:06;;;;;;;8.10;4.60;;;;;;;11.62;100.00;100559.25;5114057;28;20047;-51
2022/11/15 10:40:35;;;;;;;8.05;4.53;;;;;;;11.72;100.00;100548.03;5114100;28;20040;-57
2022/11/15 10:43:16;;;;;;;9.82;4.38;;;;;;;11.75;100.00;100547.78;5114009;28;20126;-53
2022/11/15 10:45:45;;;;;;;8.35;4.30;;;;;;;11.76;100.00;100539.78;5114170;28;20052;-55
2022/11/15 10:48:24;;;;;;;7.63;4.07;;;;;;;11.80;100.00;100527.22;5113804;27;20055;-57
2022/11/15 10:50:53;;;;;;;6.90;3.33;;;;;;;11.77;100.00;100533.56;5114009;28;20063;-57
2022/11/15 10:53:28;;;;;;;8.80;3.28;;;;;;;11.83;100.00;100524.34;5114287;28;20079;-53
2022/11/15 10:56:01;;;;;;;7.57;3.38;;;;;;;11.87;100.00;100517.88;5113871;28;20040;-53
2022/11/15 10:58:38;;;;;;;8.45;3.95;;;;;;;11.99;100.00;100518.78;5112486;28;20523;-55
2022/11/15 11:01:16;;;;;;;9.18;3.10;;;;;;;12.04;100.00;100498.19;5113635;28;20514;-55
2022/11/15 11:03:46;;;;;;;7.32;3.30;;;;;;;12.01;100.00;100514.22;5113142;28;20085;-55
2022/11/15 11:06:16;;;;;;;10.80;2.85;;;;;;;12.06;100.00;100512.09;5113424;28;20383;-53
2022/11/15 11:08:58;;;;;;;5.93;2.95;;;;;;;12.07;100.00;100508.50;5113361;28;20062;-55
2022/11/15 11:11:44;;;;;;;9.05;2.42;;;;;;;12.07;100.00;100518.22;5113656;28;20070;-53
2022/11/15 11:14:14;;;;;;;7.75;2.65;;;;;;;12.08;100.00;100511.97;5111905;28;20047;-53
2022/11/15 11:16:51;;;;;;;6.47;2.50;;;;;;;12.08;100.00;100510.19;5109504;28;20047;-53
2022/11/15 11:19:43;;;;;;;8.55;2.90;;;;;;;12.14;100.00;100495.69;5113340;28;20043;-53
2022/11/15 11:22:20;;;;;;;6.32;2.10;;;;;;;12.06;100.00;100506.00;5113839;28;20044;-54
2022/11/15 11:25:04;;;;;;;6.38;2.30;;;;;;;12.07;100.00;100505.03;5113279;28;20498;-52
2022/11/15 11:27:42;;;;;;;7.57;2.17;;;;;;;12.10;100.00;100494.25;5111421;28;20084;-52
2022/11/15 11:30:16;;;;;;;5.32;1.85;;;;;;;12.09;100.00;100498.69;5110225;28;20502;-53
2022/11/15 11:33:08;;;;;;;5.05;1.90;;;;;;;12.08;100.00;100489.09;5110336;28;20177;-53
2022/11/15 11:35:46;;;;;;;8.23;1.92;;;;;;;12.01;100.00;100493.13;5113068;28;20035;-54
2022/11/15 11:38:36;;;;;;;5.75;1.80;;;;;;;11.96;100.00;100490.03;5112859;28;20497;-55
2022/11/15 11:41:18;;;;;;;5.90;1.63;;;;;;;11.98;100.00;100493.38;5104528;28;20080;-54
2022/11/15 11:43:59;;;;;;;4.35;1.40;;;;;;;12.04;100.00;100489.44;5113011;28;20067;-54